Sunday, October 21, 2018, 11:17 AM GMT
Back to Local

CWIT, Saint Clothilde Automated Reporting Station

Location: , , Canada Lat: 45.167
Local Time: 11:17 AM GMT (11:17 GMT) Lon: -73.683
Time Zone: GMT Elev: 170 ft

Show me the last for .
Show Coded

Time T Td Feel RH Dir Speed Gust Alt SLP Vis Weather Sky Remarks
2018-10-21 11:00 36 25 29 63 290° 8 - - 29.81 0 Peak wind: 19 mph (17 kts) from 280° at 15 min
2018-10-21 10:00 35 26 29 68 290° 8 - - 29.78 0 None
2018-10-21 09:00 36 28 29 72 290° 8 - - 29.76 0 None
2018-10-21 08:00 37 28 31 70 290° 8 - - 29.74 0 None
2018-10-21 07:00 36 28 31 72 290° 6 - - 29.73 0 None
2018-10-21 06:00 37 30 32 75 290° 7 - - 29.70 0 None
2018-10-21 05:00 39 31 34 73 300° 6 - - 29.70 0 None
2018-10-21 04:00 40 33 36 76 300° 5 - - 29.67 0 None
2018-10-21 03:00 40 30 35 66 310° 7 - - 29.64 0 None
2018-10-21 02:00 43 31 - 63 320° 2 - - 29.62 0 None
2018-10-21 01:00 40 33 - 76 250° 1 - - 29.60 0 None
2018-10-21 00:00 42 31 - 65 230° 1 - - 29.57 0 None
2018-10-20 23:00 46 32 45 56 290° 3 - - 29.56 0 None
2018-10-20 22:00 49 34 47 55 290° 7 - - 29.54 0 None
2018-10-20 21:00 52 36 - 55 310° 9 - - 29.52 0 None
2018-10-20 20:00 54 36 - 51 300° 8 - - 29.50 0 Peak wind: 21 mph (19 kts) from 300° at 12 min
2018-10-20 19:00 57 36 - 45 260° 10 23 - 29.48 0 Peak wind: 27 mph (24 kts) from 280° at 10 min
2018-10-20 18:00 56 36 - 47 250° 12 23 - 29.47 0 Peak wind: 33 mph (29 kts) from 260° at 05 min
2018-10-20 17:00 56 36 - 47 270° 13 26 - 29.46 0 Peak wind: 28 mph (25 kts) from 260° at 27 min
2018-10-20 16:00 54 38 - 54 260° 16 31 - 29.46 0 Peak wind: 31 mph (27 kts) from 270° at 54 min
2018-10-20 15:00 54 40 - 58 260° 16 29 - 29.46 0 Peak wind: 32 mph (28 kts) from 260° at 00 min
2018-10-20 14:00 54 41 - 61 260° 16 28 - 29.44 0 Peak wind: 31 mph (27 kts) from 240° at 48 min
2018-10-20 13:00 52 43 - 70 250° 14 26 - 29.43 0 Peak wind: 26 mph (23 kts) from 270° at 54 min
2018-10-20 12:00 49 44 42 82 230° 12 22 - 29.41 0 Peak wind: 23 mph (20 kts) from 280° at 24 min

Support USWX by starting your Amazon purchase here.